Sti Memphis — V7IX9 — position and weather

sailwx.info

Track history (hours):
 
Tides and Currents Weather Stations Pressure Air Temp Water Temp Dewpoint Dewpoint Depression Visibility Wind Speed Wind Dir Waves Ship Positions

Sti Memphis

Last reported at 2017-Nov-01 18:14 UTC. Time now 2017-Nov-17 17:56 UTC.
Position N 49°18' W 006°45'.
Warning: this ship's position is 15 days out of date.

Length 183 m; draft 10.8 m.

Type: Tanker. MMSI: 538006010.

Date/timePositionNaut miles runAvg speedWind from/ knotsBaromVisibWave heightAir tempDewpointWater temp
2017-Nov-01 18:14N 49°18' W 006°45'20412.6
2017-Nov-01 02:00N 50°11' W 001°40'714.1
2017-Nov-01 01:30N 50°13' W 001°30'714.7
2017-Nov-01 01:00N 50°16' W 001°19'815.1
2017-Nov-01 00:30N 50°18' W 001°08'815.4
2017-Nov-01 00:00N 50°20' W 000°56'815.2
2017-Oct-31 23:30N 50°23' W 000°45'714.9
2017-Oct-31 23:00N 50°24' W 000°33'714.6
2017-Oct-31 22:30N 50°26' W 000°22'714.0
2017-Oct-31 22:00N 50°29' W 000°12'713.4
2017-Oct-31 21:30N 50°31' W 000°02'713.2
2017-Oct-31 21:00N 50°33' E 000°08'612.8
2017-Oct-31 20:30N 50°34' E 000°18'612.3
2017-Oct-31 20:00N 50°36' E 000°27'612.0
2017-Oct-31 19:30N 50°38' E 000°36'611.6
2017-Oct-31 19:00N 50°41' E 000°44'611.5
2017-Oct-31 18:30N 50°44' E 000°51'611.5
2017-Oct-31 18:00N 50°48' E 000°58'611.9
2017-Oct-31 17:30N 50°52' E 001°05'612.5
2017-Oct-31 17:00N 50°56' E 001°12'613.2
2017-Oct-31 16:30N 51°01' E 001°20'713.6
2017-Oct-31 16:00N 51°05' E 001°29'713.6
2017-Oct-31 15:30N 51°09' E 001°37'713.1
2017-Oct-31 15:00N 51°13' E 001°45'612.8
2017-Oct-31 14:30N 51°19' E 001°50'612.3
2017-Oct-31 14:01N 51°24' E 001°55'611.8
2017-Oct-31 13:30N 51°29' E 002°01'611.4
2017-Oct-31 13:00N 51°33' E 002°07'611.1
2017-Oct-31 12:30N 51°37' E 002°14'510.2
2017-Oct-31 11:59N 51°41' E 002°19'510.8
2017-Oct-31 11:29N 51°45' E 002°24'510.9
2017-Oct-31 11:01N 51°49' E 002°31'610.3
2017-Oct-31 10:27N 51°53' E 002°36'711.3
2017-Oct-31 09:50N 51°60' E 002°38'911.6
2017-Oct-31 09:04N 52°09' E 002°39'512.0
2017-Oct-31 08:39N 52°13' E 002°43'1612.7
2017-Oct-31 07:23N 52°27' E 002°55'24912.6
2017-Oct-30 11:39N 56°00' E 006°37'8912.1
2017-Oct-30 04:16N 57°19' E 007°54'312.0
2017-Oct-30 03:59N 57°20' E 007°59'612.0
2017-Oct-30 03:28N 57°24' E 008°09'611.9
2017-Oct-30 03:00N 57°27' E 008°18'612.1
2017-Oct-30 02:29N 57°30' E 008°27'612.1
2017-Oct-30 01:59N 57°34' E 008°37'611.9
2017-Oct-30 01:29N 57°37' E 008°46'611.9
2017-Oct-30 01:00N 57°39' E 008°56'612.2
2017-Oct-30 00:30N 57°41' E 009°07'612.1
2017-Oct-29 23:59N 57°43' E 009°18'612.4
2017-Oct-29 23:29N 57°45' E 009°29'612.5
2017-Oct-29 22:59N 57°46' E 009°40'612.6
2017-Oct-29 22:29N 57°48' E 009°52'612.9
2017-Oct-29 22:00N 57°50' E 010°03'612.4
2017-Oct-29 21:29N 57°50' E 010°15'612.2
2017-Oct-29 21:00N 57°50' E 010°26'612.0
2017-Oct-29 20:30N 57°51' E 010°37'510.3
2017-Oct-29 20:00N 57°49' E 010°46'610.7
2017-Oct-29 19:29N 57°45' E 010°53'5 9.7
2017-Oct-29 19:00N 57°41' E 010°59'5 9.8
2017-Oct-29 18:30N 57°38' E 011°06'510.1
2017-Oct-29 18:00N 57°35' E 011°13'510.3
2017-Oct-29 17:29N 57°31' E 011°20'5 9.9
2017-Oct-29 17:00N 57°27' E 011°26'5 9.4
2017-Oct-29 16:30N 57°23' E 011°29'5 9.5
2017-Oct-29 16:00N 57°18' E 011°32'5 9.1
2017-Oct-29 15:30N 57°14' E 011°34'4 8.4
2017-Oct-29 15:00N 57°10' E 011°38'4 8.1
2017-Oct-29 14:30N 57°07' E 011°41'4 8.7
2017-Oct-29 14:00N 57°02' E 011°43'148 7.8
2017-Oct-28 19:00N 54°36' E 011°02'5 9.4
2017-Oct-28 18:30N 54°36' E 011°10'5 9.4
2017-Oct-28 18:00N 54°34' E 011°17'5 9.4
2017-Oct-28 17:30N 54°32' E 011°24'5 9.2
2017-Oct-28 17:00N 54°30' E 011°32'5 9.7
2017-Oct-28 16:30N 54°28' E 011°40'510.3
2017-Oct-28 16:00N 54°27' E 011°48'5 9.8
2017-Oct-28 15:30N 54°27' E 011°56'510.0
2017-Oct-28 15:00N 54°27' E 012°05'4 8.8
2017-Oct-28 14:30N 54°29' E 012°12'510.5
2017-Oct-28 14:00N 54°33' E 012°15'4 8.4
2017-Oct-28 13:30N 54°37' E 012°19'5610.0
2017-Oct-28 07:54N 55°01' E 013°47'510.3
2017-Oct-28 07:26N 55°03' E 013°55'510.3
2017-Oct-28 06:58N 55°05' E 014°02'510.6
2017-Oct-28 06:30N 55°08' E 014°09'611.1
2017-Oct-28 05:57N 55°13' E 014°16'511.1
2017-Oct-28 05:30N 55°16' E 014°21'611.3
2017-Oct-28 05:00N 55°21' E 014°28'611.6
2017-Oct-28 04:30N 55°26' E 014°34'611.6
2017-Oct-28 04:00N 55°29' E 014°43'711.7
2017-Oct-28 03:24N 55°32' E 014°54'511.6
2017-Oct-28 02:58N 55°34' E 015°02'511.4
2017-Oct-28 02:30N 55°36' E 015°11'611.7
2017-Oct-28 02:00N 55°37' E 015°20'611.4
2017-Oct-28 01:30N 55°39' E 015°30'611.6
2017-Oct-28 01:00N 55°40' E 015°40'611.7
2017-Oct-28 00:30N 55°42' E 015°50'611.6
2017-Oct-28 00:00N 55°43' E 016°00'611.6
2017-Oct-27 23:30N 55°45' E 016°10'611.7
2017-Oct-27 23:00N 55°46' E 016°20'611.8
2017-Oct-27 22:30N 55°48' E 016°30'611.8
2017-Oct-27 22:00N 55°49' E 016°40'712.0
2017-Oct-27 21:25N 55°51' E 016°53'612.0
2017-Oct-27 20:57N 55°52' E 017°02'  
2017-Oct-23 05:22N 55°47' E 016°44'512.8
2017-Oct-23 05:01N 55°46' E 016°36'713.2
2017-Oct-23 04:31N 55°44' E 016°25'713.4
2017-Oct-23 04:01N 55°43' E 016°13'713.5
2017-Oct-23 03:31N 55°41' E 016°02'713.7
2017-Oct-23 03:00N 55°39' E 015°50'713.8
2017-Oct-23 02:30N 55°38' E 015°38'713.9
2017-Oct-23 02:00N 55°36' E 015°26'713.8
2017-Oct-23 01:31N 55°33' E 015°15'713.8
2017-Oct-23 01:01N 55°30' E 015°04'713.7
2017-Oct-23 00:30N 55°27' E 014°54'713.9
2017-Oct-23 00:00N 55°24' E 014°42'713.6
2017-Oct-22 23:30N 55°20' E 014°33'714.0
2017-Oct-22 23:00N 55°14' E 014°25'713.9
2017-Oct-22 22:30N 55°10' E 014°16'713.8
2017-Oct-22 22:00N 55°10' E 014°04'1213.8
2017-Oct-22 21:09N 55°10' E 013°43'713.6
2017-Oct-22 20:40N 55°11' E 013°32'413.9
2017-Oct-22 20:25N 55°12' E 013°26'714.0
2017-Oct-22 19:55N 55°12' E 013°14'613.9
2017-Oct-22 19:31N 55°13' E 013°04'713.8
2017-Oct-22 19:00N 55°15' E 012°52'713.8
2017-Oct-22 18:30N 55°17' E 012°41'  
Track history (hours):
 
Tides and Currents Weather Stations Pressure Air Temp Water Temp Dewpoint Dewpoint Depression Visibility Wind Speed Wind Dir Waves Ship Positions

Sti Memphis

Last reported at 2017-Nov-01 18:14 UTC. Time now 2017-Nov-17 17:56 UTC.
Position N 49°18' W 006°45'.
Warning: this ship's position is 15 days out of date.

Length 183 m; draft 10.8 m.

Type: Tanker. MMSI: 538006010.

Date/timePositionNaut miles runAvg speedWind from/ knotsBaromVisibWave heightAir tempDewpointWater temp
2017-Nov-01 18:14N 49°18' W 006°45'20412.6
2017-Nov-01 02:00N 50°11' W 001°40'714.1
2017-Nov-01 01:30N 50°13' W 001°30'714.7
2017-Nov-01 01:00N 50°16' W 001°19'815.1
2017-Nov-01 00:30N 50°18' W 001°08'815.4
2017-Nov-01 00:00N 50°20' W 000°56'815.2
2017-Oct-31 23:30N 50°23' W 000°45'714.9
2017-Oct-31 23:00N 50°24' W 000°33'714.6
2017-Oct-31 22:30N 50°26' W 000°22'714.0
2017-Oct-31 22:00N 50°29' W 000°12'713.4
2017-Oct-31 21:30N 50°31' W 000°02'713.2
2017-Oct-31 21:00N 50°33' E 000°08'612.8
2017-Oct-31 20:30N 50°34' E 000°18'612.3
2017-Oct-31 20:00N 50°36' E 000°27'612.0
2017-Oct-31 19:30N 50°38' E 000°36'611.6
2017-Oct-31 19:00N 50°41' E 000°44'611.5
2017-Oct-31 18:30N 50°44' E 000°51'611.5
2017-Oct-31 18:00N 50°48' E 000°58'611.9
2017-Oct-31 17:30N 50°52' E 001°05'612.5
2017-Oct-31 17:00N 50°56' E 001°12'613.2
2017-Oct-31 16:30N 51°01' E 001°20'713.6
2017-Oct-31 16:00N 51°05' E 001°29'713.6
2017-Oct-31 15:30N 51°09' E 001°37'713.1
2017-Oct-31 15:00N 51°13' E 001°45'612.8
2017-Oct-31 14:30N 51°19' E 001°50'612.3
2017-Oct-31 14:01N 51°24' E 001°55'611.8
2017-Oct-31 13:30N 51°29' E 002°01'611.4
2017-Oct-31 13:00N 51°33' E 002°07'611.1
2017-Oct-31 12:30N 51°37' E 002°14'510.2
2017-Oct-31 11:59N 51°41' E 002°19'510.8
2017-Oct-31 11:29N 51°45' E 002°24'510.9
2017-Oct-31 11:01N 51°49' E 002°31'610.3
2017-Oct-31 10:27N 51°53' E 002°36'711.3
2017-Oct-31 09:50N 51°60' E 002°38'911.6
2017-Oct-31 09:04N 52°09' E 002°39'512.0
2017-Oct-31 08:39N 52°13' E 002°43'1612.7
2017-Oct-31 07:23N 52°27' E 002°55'24912.6
2017-Oct-30 11:39N 56°00' E 006°37'8912.1
2017-Oct-30 04:16N 57°19' E 007°54'312.0
2017-Oct-30 03:59N 57°20' E 007°59'612.0
2017-Oct-30 03:28N 57°24' E 008°09'611.9
2017-Oct-30 03:00N 57°27' E 008°18'612.1
2017-Oct-30 02:29N 57°30' E 008°27'612.1
2017-Oct-30 01:59N 57°34' E 008°37'611.9
2017-Oct-30 01:29N 57°37' E 008°46'611.9
2017-Oct-30 01:00N 57°39' E 008°56'612.2
2017-Oct-30 00:30N 57°41' E 009°07'612.1
2017-Oct-29 23:59N 57°43' E 009°18'612.4
2017-Oct-29 23:29N 57°45' E 009°29'612.5
2017-Oct-29 22:59N 57°46' E 009°40'612.6
2017-Oct-29 22:29N 57°48' E 009°52'612.9
2017-Oct-29 22:00N 57°50' E 010°03'612.4
2017-Oct-29 21:29N 57°50' E 010°15'612.2
2017-Oct-29 21:00N 57°50' E 010°26'612.0
2017-Oct-29 20:30N 57°51' E 010°37'510.3
2017-Oct-29 20:00N 57°49' E 010°46'610.7
2017-Oct-29 19:29N 57°45' E 010°53'5 9.7
2017-Oct-29 19:00N 57°41' E 010°59'5 9.8
2017-Oct-29 18:30N 57°38' E 011°06'510.1
2017-Oct-29 18:00N 57°35' E 011°13'510.3
2017-Oct-29 17:29N 57°31' E 011°20'5 9.9
2017-Oct-29 17:00N 57°27' E 011°26'5 9.4
2017-Oct-29 16:30N 57°23' E 011°29'5 9.5
2017-Oct-29 16:00N 57°18' E 011°32'5 9.1
2017-Oct-29 15:30N 57°14' E 011°34'4 8.4
2017-Oct-29 15:00N 57°10' E 011°38'4 8.1
2017-Oct-29 14:30N 57°07' E 011°41'4 8.7
2017-Oct-29 14:00N 57°02' E 011°43'148 7.8
2017-Oct-28 19:00N 54°36' E 011°02'5 9.4
2017-Oct-28 18:30N 54°36' E 011°10'5 9.4
2017-Oct-28 18:00N 54°34' E 011°17'5 9.4
2017-Oct-28 17:30N 54°32' E 011°24'5 9.2
2017-Oct-28 17:00N 54°30' E 011°32'5 9.7
2017-Oct-28 16:30N 54°28' E 011°40'510.3
2017-Oct-28 16:00N 54°27' E 011°48'5 9.8
2017-Oct-28 15:30N 54°27' E 011°56'510.0
2017-Oct-28 15:00N 54°27' E 012°05'4 8.8
2017-Oct-28 14:30N 54°29' E 012°12'510.5
2017-Oct-28 14:00N 54°33' E 012°15'4 8.4
2017-Oct-28 13:30N 54°37' E 012°19'5610.0
2017-Oct-28 07:54N 55°01' E 013°47'510.3
2017-Oct-28 07:26N 55°03' E 013°55'510.3
2017-Oct-28 06:58N 55°05' E 014°02'510.6
2017-Oct-28 06:30N 55°08' E 014°09'611.1
2017-Oct-28 05:57N 55°13' E 014°16'511.1
2017-Oct-28 05:30N 55°16' E 014°21'611.3
2017-Oct-28 05:00N 55°21' E 014°28'611.6
2017-Oct-28 04:30N 55°26' E 014°34'611.6
2017-Oct-28 04:00N 55°29' E 014°43'711.7
2017-Oct-28 03:24N 55°32' E 014°54'511.6
2017-Oct-28 02:58N 55°34' E 015°02'511.4
2017-Oct-28 02:30N 55°36' E 015°11'611.7
2017-Oct-28 02:00N 55°37' E 015°20'611.4
2017-Oct-28 01:30N 55°39' E 015°30'611.6
2017-Oct-28 01:00N 55°40' E 015°40'611.7
2017-Oct-28 00:30N 55°42' E 015°50'611.6
2017-Oct-28 00:00N 55°43' E 016°00'611.6
2017-Oct-27 23:30N 55°45' E 016°10'611.7
2017-Oct-27 23:00N 55°46' E 016°20'611.8
2017-Oct-27 22:30N 55°48' E 016°30'611.8
2017-Oct-27 22:00N 55°49' E 016°40'712.0
2017-Oct-27 21:25N 55°51' E 016°53'612.0
2017-Oct-27 20:57N 55°52' E 017°02'  
2017-Oct-23 05:22N 55°47' E 016°44'512.8
2017-Oct-23 05:01N 55°46' E 016°36'713.2
2017-Oct-23 04:31N 55°44' E 016°25'713.4
2017-Oct-23 04:01N 55°43' E 016°13'713.5
2017-Oct-23 03:31N 55°41' E 016°02'713.7
2017-Oct-23 03:00N 55°39' E 015°50'713.8
2017-Oct-23 02:30N 55°38' E 015°38'713.9
2017-Oct-23 02:00N 55°36' E 015°26'713.8
2017-Oct-23 01:31N 55°33' E 015°15'713.8
2017-Oct-23 01:01N 55°30' E 015°04'713.7
2017-Oct-23 00:30N 55°27' E 014°54'713.9
2017-Oct-23 00:00N 55°24' E 014°42'713.6
2017-Oct-22 23:30N 55°20' E 014°33'714.0
2017-Oct-22 23:00N 55°14' E 014°25'713.9
2017-Oct-22 22:30N 55°10' E 014°16'713.8
2017-Oct-22 22:00N 55°10' E 014°04'1213.8
2017-Oct-22 21:09N 55°10' E 013°43'713.6
2017-Oct-22 20:40N 55°11' E 013°32'413.9
2017-Oct-22 20:25N 55°12' E 013°26'714.0
2017-Oct-22 19:55N 55°12' E 013°14'613.9
2017-Oct-22 19:31N 55°13' E 013°04'713.8
2017-Oct-22 19:00N 55°15' E 012°52'713.8
2017-Oct-22 18:30N 55°17' E 012°41'  

Dump ship's entire track history